sensor_id;sensor_type;location;lat;lon;timestamp;temperature;humidity
21189;DHT22;39071;52.420;20.896;2022-08-03T00:01:37;16.40;99.90
21189;DHT22;39071;52.420;20.896;2022-08-03T00:04:04;16.40;99.90
21189;DHT22;39071;52.420;20.896;2022-08-03T00:06:30;16.40;99.90
21189;DHT22;39071;52.420;20.896;2022-08-03T00:08:56;16.30;99.90
21189;DHT22;39071;52.420;20.896;2022-08-03T00:11:22;16.30;1.00
21189;DHT22;39071;52.420;20.896;2022-08-03T00:13:48;16.30;1.00
21189;DHT22;39071;52.420;20.896;2022-08-03T00:16:13;16.30;1.00
21189;DHT22;39071;52.420;20.896;2022-08-03T00:18:40;16.30;1.00
21189;DHT22;39071;52.420;20.896;2022-08-03T00:21:05;16.30;99.90
21189;DHT22;39071;52.420;20.896;2022-08-03T00:23:32;16.30;99.90
21189;DHT22;39071;52.420;20.896;2022-08-03T00:25:58;16.20;99.90
21189;DHT22;39071;52.420;20.896;2022-08-03T00:28:24;16.20;99.90
21189;DHT22;39071;52.420;20.896;2022-08-03T00:30:49;16.20;99.90
21189;DHT22;39071;52.420;20.896;2022-08-03T00:33:15;16.20;99.90
21189;DHT22;39071;52.420;20.896;2022-08-03T00:35:41;16.10;99.90
21189;DHT22;39071;52.420;20.896;2022-08-03T00:38:07;16.10;99.90
21189;DHT22;39071;52.420;20.896;2022-08-03T00:40:33;16.10;1.00
21189;DHT22;39071;52.420;20.896;2022-08-03T00:43:02;16.10;1.00
21189;DHT22;39071;52.420;20.896;2022-08-03T00:45:30;16.10;1.00
21189;DHT22;39071;52.420;20.896;2022-08-03T00:47:57;16.10;1.00
21189;DHT22;39071;52.420;20.896;2022-08-03T00:50:24;16.10;1.00
21189;DHT22;39071;52.420;20.896;2022-08-03T00:52:52;16.10;1.00
21189;DHT22;39071;52.420;20.896;2022-08-03T00:55:18;16.00;99.90
21189;DHT22;39071;52.420;20.896;2022-08-03T00:57:44;15.90;1.00
21189;DHT22;39071;52.420;20.896;2022-08-03T01:00:13;15.90;1.00
21189;DHT22;39071;52.420;20.896;2022-08-03T01:02:39;15.90;1.00
21189;DHT22;39071;52.420;20.896;2022-08-03T01:05:06;15.90;1.00
21189;DHT22;39071;52.420;20.896;2022-08-03T01:10:50;15.80;1.00
21189;DHT22;39071;52.420;20.896;2022-08-03T01:13:27;15.80;99.90
21189;DHT22;39071;52.420;20.896;2022-08-03T01:16:18;15.80;1.00
21189;DHT22;39071;52.420;20.896;2022-08-03T01:21:31;15.70;1.00
21189;DHT22;39071;52.420;20.896;2022-08-03T01:24:26;15.70;1.00
21189;DHT22;39071;52.420;20.896;2022-08-03T01:27:15;15.70;1.00
21189;DHT22;39071;52.420;20.896;2022-08-03T01:35:12;15.70;99.90
21189;DHT22;39071;52.420;20.896;2022-08-03T01:37:56;15.60;99.90
21189;DHT22;39071;52.420;20.896;2022-08-03T01:40:24;15.60;99.90
21189;DHT22;39071;52.420;20.896;2022-08-03T01:42:51;15.60;99.90
21189;DHT22;39071;52.420;20.896;2022-08-03T01:45:20;15.60;99.90
21189;DHT22;39071;52.420;20.896;2022-08-03T01:47:47;15.60;1.00
21189;DHT22;39071;52.420;20.896;2022-08-03T01:50:14;15.60;1.00
21189;DHT22;39071;52.420;20.896;2022-08-03T01:52:43;15.60;1.00
21189;DHT22;39071;52.420;20.896;2022-08-03T01:55:11;15.60;99.90
21189;DHT22;39071;52.420;20.896;2022-08-03T01:57:39;15.60;99.90
21189;DHT22;39071;52.420;20.896;2022-08-03T02:00:08;15.50;99.90
21189;DHT22;39071;52.420;20.896;2022-08-03T02:02:35;15.50;99.90
21189;DHT22;39071;52.420;20.896;2022-08-03T02:05:04;15.50;99.90
21189;DHT22;39071;52.420;20.896;2022-08-03T02:07:32;15.40;99.90
21189;DHT22;39071;52.420;20.896;2022-08-03T02:10:00;15.40;99.90
21189;DHT22;39071;52.420;20.896;2022-08-03T02:12:28;15.40;1.00
21189;DHT22;39071;52.420;20.896;2022-08-03T02:14:56;15.40;1.00
21189;DHT22;39071;52.420;20.896;2022-08-03T02:17:24;15.40;1.00
21189;DHT22;39071;52.420;20.896;2022-08-03T02:19:51;15.40;1.00
21189;DHT22;39071;52.420;20.896;2022-08-03T02:22:17;15.40;1.00
21189;DHT22;39071;52.420;20.896;2022-08-03T02:24:43;15.40;99.90
21189;DHT22;39071;52.420;20.896;2022-08-03T02:27:22;15.40;99.90
21189;DHT22;39071;52.420;20.896;2022-08-03T02:29:52;15.40;1.00
21189;DHT22;39071;52.420;20.896;2022-08-03T02:32:23;15.30;1.00
21189;DHT22;39071;52.420;20.896;2022-08-03T02:34:54;15.30;1.00
21189;DHT22;39071;52.420;20.896;2022-08-03T02:37:24;15.40;1.00
21189;DHT22;39071;52.420;20.896;2022-08-03T02:39:57;15.40;1.00
21189;DHT22;39071;52.420;20.896;2022-08-03T02:42:24;15.40;1.00
21189;DHT22;39071;52.420;20.896;2022-08-03T02:44:52;15.40;99.90
21189;DHT22;39071;52.420;20.896;2022-08-03T02:47:20;15.30;99.90
21189;DHT22;39071;52.420;20.896;2022-08-03T02:49:48;15.30;99.90
21189;DHT22;39071;52.420;20.896;2022-08-03T02:52:16;15.30;1.00
21189;DHT22;39071;52.420;20.896;2022-08-03T02:54:43;15.30;1.00
21189;DHT22;39071;52.420;20.896;2022-08-03T02:57:12;15.30;1.00
21189;DHT22;39071;52.420;20.896;2022-08-03T02:59:40;15.20;99.90
21189;DHT22;39071;52.420;20.896;2022-08-03T03:02:07;15.20;99.90
21189;DHT22;39071;52.420;20.896;2022-08-03T03:04:34;15.20;1.00
21189;DHT22;39071;52.420;20.896;2022-08-03T03:07:00;15.30;1.00
21189;DHT22;39071;52.420;20.896;2022-08-03T03:09:26;15.30;1.00
21189;DHT22;39071;52.420;20.896;2022-08-03T03:11:53;15.30;1.00
21189;DHT22;39071;52.420;20.896;2022-08-03T03:14:19;15.30;1.00
21189;DHT22;39071;52.420;20.896;2022-08-03T03:16:46;15.30;1.00
21189;DHT22;39071;52.420;20.896;2022-08-03T03:19:13;15.30;1.00
21189;DHT22;39071;52.420;20.896;2022-08-03T03:21:41;15.20;1.00
21189;DHT22;39071;52.420;20.896;2022-08-03T03:24:08;15.20;1.00
21189;DHT22;39071;52.420;20.896;2022-08-03T03:26:34;15.30;1.00
21189;DHT22;39071;52.420;20.896;2022-08-03T03:29:01;15.30;1.00
21189;DHT22;39071;52.420;20.896;2022-08-03T03:31:28;15.40;1.00
21189;DHT22;39071;52.420;20.896;2022-08-03T03:33:56;15.50;1.00
21189;DHT22;39071;52.420;20.896;2022-08-03T03:36:22;15.60;1.00
21189;DHT22;39071;52.420;20.896;2022-08-03T03:38:47;15.70;1.00
21189;DHT22;39071;52.420;20.896;2022-08-03T03:41:13;15.80;1.00
21189;DHT22;39071;52.420;20.896;2022-08-03T03:43:39;15.90;99.90
21189;DHT22;39071;52.420;20.896;2022-08-03T03:46:05;16.00;99.90
21189;DHT22;39071;52.420;20.896;2022-08-03T03:48:31;16.00;99.90
21189;DHT22;39071;52.420;20.896;2022-08-03T03:50:57;16.00;99.90
21189;DHT22;39071;52.420;20.896;2022-08-03T03:53:23;16.10;99.90
21189;DHT22;39071;52.420;20.896;2022-08-03T03:55:51;16.10;99.90
21189;DHT22;39071;52.420;20.896;2022-08-03T03:58:17;16.20;1.00
21189;DHT22;39071;52.420;20.896;2022-08-03T04:00:43;16.30;1.00
21189;DHT22;39071;52.420;20.896;2022-08-03T04:03:10;16.60;99.90
21189;DHT22;39071;52.420;20.896;2022-08-03T04:05:36;16.90;71.50
21189;DHT22;39071;52.420;20.896;2022-08-03T04:08:21;17.00;99.90
21189;DHT22;39071;52.420;20.896;2022-08-03T04:13:41;17.10;1.00
21189;DHT22;39071;52.420;20.896;2022-08-03T04:16:11;17.20;1.00
21189;DHT22;39071;52.420;20.896;2022-08-03T04:18:40;17.50;99.90
21189;DHT22;39071;52.420;20.896;2022-08-03T04:21:09;17.70;1.00
21189;DHT22;39071;52.420;20.896;2022-08-03T04:23:42;18.70;1.00
21189;DHT22;39071;52.420;20.896;2022-08-03T04:26:10;20.20;99.90
21189;DHT22;39071;52.420;20.896;2022-08-03T04:28:38;21.00;1.00
21189;DHT22;39071;52.420;20.896;2022-08-03T04:31:05;22.50;17.80
21189;DHT22;39071;52.420;20.896;2022-08-03T04:33:33;23.60;1.00
21189;DHT22;39071;52.420;20.896;2022-08-03T04:36:01;24.50;1.00
21189;DHT22;39071;52.420;20.896;2022-08-03T04:38:36;25.80;1.00
21189;DHT22;39071;52.420;20.896;2022-08-03T04:41:04;26.30;99.90
21189;DHT22;39071;52.420;20.896;2022-08-03T04:43:32;26.60;99.90
21189;DHT22;39071;52.420;20.896;2022-08-03T04:45:59;27.50;99.90
21189;DHT22;39071;52.420;20.896;2022-08-03T04:48:25;28.00;99.90
21189;DHT22;39071;52.420;20.896;2022-08-03T04:50:52;27.90;99.90
21189;DHT22;39071;52.420;20.896;2022-08-03T04:53:18;27.00;99.90
21189;DHT22;39071;52.420;20.896;2022-08-03T04:55:43;26.10;99.90
21189;DHT22;39071;52.420;20.896;2022-08-03T04:58:09;25.40;99.90
21189;DHT22;39071;52.420;20.896;2022-08-03T05:00:35;25.20;99.90
21189;DHT22;39071;52.420;20.896;2022-08-03T05:03:00;25.30;99.90
21189;DHT22;39071;52.420;20.896;2022-08-03T05:05:26;24.80;99.90
21189;DHT22;39071;52.420;20.896;2022-08-03T05:07:52;24.40;99.90
21189;DHT22;39071;52.420;20.896;2022-08-03T05:10:18;24.10;99.90
21189;DHT22;39071;52.420;20.896;2022-08-03T05:12:44;23.90;1.00
21189;DHT22;39071;52.420;20.896;2022-08-03T05:15:10;23.70;1.00
21189;DHT22;39071;52.420;20.896;2022-08-03T05:17:36;23.40;1.00
21189;DHT22;39071;52.420;20.896;2022-08-03T05:20:03;23.20;1.00
21189;DHT22;39071;52.420;20.896;2022-08-03T05:22:29;23.10;1.00
21189;DHT22;39071;52.420;20.896;2022-08-03T05:24:55;23.20;1.00
21189;DHT22;39071;52.420;20.896;2022-08-03T05:27:20;23.10;1.00
21189;DHT22;39071;52.420;20.896;2022-08-03T05:29:48;22.70;1.00
21189;DHT22;39071;52.420;20.896;2022-08-03T05:32:14;22.40;1.00
21189;DHT22;39071;52.420;20.896;2022-08-03T05:34:40;22.40;1.00
21189;DHT22;39071;52.420;20.896;2022-08-03T05:37:06;22.30;1.00
21189;DHT22;39071;52.420;20.896;2022-08-03T05:39:32;22.10;1.00
21189;DHT22;39071;52.420;20.896;2022-08-03T05:41:58;21.90;1.00
21189;DHT22;39071;52.420;20.896;2022-08-03T05:44:24;21.90;1.00
21189;DHT22;39071;52.420;20.896;2022-08-03T05:46:50;21.80;99.90
21189;DHT22;39071;52.420;20.896;2022-08-03T05:49:16;21.80;99.90
21189;DHT22;39071;52.420;20.896;2022-08-03T05:51:42;21.80;99.90
21189;DHT22;39071;52.420;20.896;2022-08-03T05:54:08;21.70;99.90
21189;DHT22;39071;52.420;20.896;2022-08-03T05:56:33;21.80;99.90
21189;DHT22;39071;52.420;20.896;2022-08-03T05:58:59;21.60;99.90
21189;DHT22;39071;52.420;20.896;2022-08-03T06:01:25;21.30;99.90
21189;DHT22;39071;52.420;20.896;2022-08-03T06:03:51;21.20;1.00
21189;DHT22;39071;52.420;20.896;2022-08-03T06:06:17;21.20;1.00
21189;DHT22;39071;52.420;20.896;2022-08-03T06:08:44;21.30;1.00
21189;DHT22;39071;52.420;20.896;2022-08-03T06:11:10;21.30;1.00
21189;DHT22;39071;52.420;20.896;2022-08-03T06:13:36;21.30;1.00
21189;DHT22;39071;52.420;20.896;2022-08-03T06:16:02;21.40;1.00
21189;DHT22;39071;52.420;20.896;2022-08-03T06:18:28;21.40;1.00
21189;DHT22;39071;52.420;20.896;2022-08-03T06:20:54;21.40;1.00
21189;DHT22;39071;52.420;20.896;2022-08-03T06:23:20;21.40;1.00
21189;DHT22;39071;52.420;20.896;2022-08-03T06:25:46;21.50;1.00
21189;DHT22;39071;52.420;20.896;2022-08-03T06:28:12;21.50;1.00
21189;DHT22;39071;52.420;20.896;2022-08-03T06:30:42;21.30;1.00
21189;DHT22;39071;52.420;20.896;2022-08-03T06:33:08;21.30;1.00
21189;DHT22;39071;52.420;20.896;2022-08-03T06:35:34;21.30;1.00
21189;DHT22;39071;52.420;20.896;2022-08-03T06:37:59;21.30;1.00
21189;DHT22;39071;52.420;20.896;2022-08-03T06:40:25;21.20;1.00
21189;DHT22;39071;52.420;20.896;2022-08-03T06:43:00;21.00;1.00
21189;DHT22;39071;52.420;20.896;2022-08-03T06:45:26;20.90;99.90
21189;DHT22;39071;52.420;20.896;2022-08-03T06:48:03;21.10;99.90
21189;DHT22;39071;52.420;20.896;2022-08-03T06:50:29;21.20;99.90
21189;DHT22;39071;52.420;20.896;2022-08-03T06:52:55;22.20;99.90
21189;DHT22;39071;52.420;20.896;2022-08-03T06:55:21;24.30;99.90
21189;DHT22;39071;52.420;20.896;2022-08-03T06:57:47;24.50;1.00
21189;DHT22;39071;52.420;20.896;2022-08-03T07:00:13;24.80;1.00
21189;DHT22;39071;52.420;20.896;2022-08-03T07:02:39;25.10;1.00
21189;DHT22;39071;52.420;20.896;2022-08-03T07:05:06;26.10;1.00
21189;DHT22;39071;52.420;20.896;2022-08-03T07:07:31;26.40;1.00
21189;DHT22;39071;52.420;20.896;2022-08-03T07:09:57;26.10;99.90
21189;DHT22;39071;52.420;20.896;2022-08-03T07:12:24;25.60;99.90
21189;DHT22;39071;52.420;20.896;2022-08-03T07:14:50;25.50;99.90
21189;DHT22;39071;52.420;20.896;2022-08-03T07:17:16;25.40;99.90
21189;DHT22;39071;52.420;20.896;2022-08-03T07:19:41;25.20;99.90
21189;DHT22;39071;52.420;20.896;2022-08-03T07:22:08;25.10;99.90
21189;DHT22;39071;52.420;20.896;2022-08-03T07:24:33;25.10;1.00
21189;DHT22;39071;52.420;20.896;2022-08-03T07:26:59;25.10;99.90
21189;DHT22;39071;52.420;20.896;2022-08-03T07:29:26;25.40;1.00
21189;DHT22;39071;52.420;20.896;2022-08-03T07:31:52;26.30;99.90
21189;DHT22;39071;52.420;20.896;2022-08-03T07:34:18;26.50;99.90
21189;DHT22;39071;52.420;20.896;2022-08-03T07:36:43;26.50;99.90
21189;DHT22;39071;52.420;20.896;2022-08-03T07:39:09;26.70;99.90
21189;DHT22;39071;52.420;20.896;2022-08-03T07:41:35;27.30;99.90
21189;DHT22;39071;52.420;20.896;2022-08-03T07:44:02;28.00;99.90
21189;DHT22;39071;52.420;20.896;2022-08-03T07:46:27;28.60;99.90
21189;DHT22;39071;52.420;20.896;2022-08-03T07:48:53;29.70;99.90
21189;DHT22;39071;52.420;20.896;2022-08-03T07:51:19;31.50;99.90
21189;DHT22;39071;52.420;20.896;2022-08-03T07:53:44;33.00;99.90
21189;DHT22;39071;52.420;20.896;2022-08-03T07:56:10;33.40;99.90
21189;DHT22;39071;52.420;20.896;2022-08-03T07:58:36;33.80;99.90
21189;DHT22;39071;52.420;20.896;2022-08-03T08:01:02;34.70;86.10
21189;DHT22;39071;52.420;20.896;2022-08-03T08:03:27;35.20;47.80
21189;DHT22;39071;52.420;20.896;2022-08-03T08:05:53;35.10;50.30
21189;DHT22;39071;52.420;20.896;2022-08-03T08:08:19;35.80;25.10
21189;DHT22;39071;52.420;20.896;2022-08-03T08:10:48;36.10;41.80
21189;DHT22;39071;52.420;20.896;2022-08-03T08:13:13;35.10;19.50
21189;DHT22;39071;52.420;20.896;2022-08-03T08:15:39;34.20;13.00
21189;DHT22;39071;52.420;20.896;2022-08-03T08:18:05;34.40;1.00
21189;DHT22;39071;52.420;20.896;2022-08-03T08:20:32;33.60;1.00
21189;DHT22;39071;52.420;20.896;2022-08-03T08:23:00;32.90;22.00
21189;DHT22;39071;52.420;20.896;2022-08-03T08:25:26;34.50;1.10
21189;DHT22;39071;52.420;20.896;2022-08-03T08:27:52;35.80;1.00
21189;DHT22;39071;52.420;20.896;2022-08-03T08:30:20;35.60;1.00
21189;DHT22;39071;52.420;20.896;2022-08-03T08:32:47;35.00;1.00
21189;DHT22;39071;52.420;20.896;2022-08-03T08:35:13;36.00;1.00
21189;DHT22;39071;52.420;20.896;2022-08-03T08:37:39;36.10;3.20
21189;DHT22;39071;52.420;20.896;2022-08-03T08:40:06;36.60;9.00
21189;DHT22;39071;52.420;20.896;2022-08-03T08:42:33;36.00;10.30
21189;DHT22;39071;52.420;20.896;2022-08-03T08:45:02;35.50;1.00
21189;DHT22;39071;52.420;20.896;2022-08-03T08:47:30;34.90;1.00
21189;DHT22;39071;52.420;20.896;2022-08-03T08:49:57;34.40;1.00
21189;DHT22;39071;52.420;20.896;2022-08-03T08:52:25;34.00;7.10
21189;DHT22;39071;52.420;20.896;2022-08-03T08:54:58;35.00;1.00
21189;DHT22;39071;52.420;20.896;2022-08-03T08:57:29;34.80;1.00
21189;DHT22;39071;52.420;20.896;2022-08-03T08:59:55;34.50;1.00
21189;DHT22;39071;52.420;20.896;2022-08-03T09:02:25;35.60;1.00
21189;DHT22;39071;52.420;20.896;2022-08-03T09:04:53;35.90;1.00
21189;DHT22;39071;52.420;20.896;2022-08-03T09:07:19;35.70;1.00
21189;DHT22;39071;52.420;20.896;2022-08-03T09:09:45;35.20;1.00
21189;DHT22;39071;52.420;20.896;2022-08-03T09:12:11;35.40;1.00
21189;DHT22;39071;52.420;20.896;2022-08-03T09:14:36;35.60;1.00
21189;DHT22;39071;52.420;20.896;2022-08-03T09:17:03;35.40;1.00
21189;DHT22;39071;52.420;20.896;2022-08-03T09:19:30;35.30;1.00
21189;DHT22;39071;52.420;20.896;2022-08-03T09:22:16;35.50;1.00
21189;DHT22;39071;52.420;20.896;2022-08-03T09:24:57;35.50;1.00
21189;DHT22;39071;52.420;20.896;2022-08-03T09:27:23;35.30;1.00
21189;DHT22;39071;52.420;20.896;2022-08-03T09:29:53;35.00;1.00
21189;DHT22;39071;52.420;20.896;2022-08-03T09:32:20;35.00;1.00
21189;DHT22;39071;52.420;20.896;2022-08-03T09:34:48;35.00;1.00
21189;DHT22;39071;52.420;20.896;2022-08-03T09:37:16;34.70;1.00
21189;DHT22;39071;52.420;20.896;2022-08-03T09:39:43;34.70;1.00
21189;DHT22;39071;52.420;20.896;2022-08-03T09:42:17;34.60;1.00
21189;DHT22;39071;52.420;20.896;2022-08-03T09:44:45;34.60;1.00
21189;DHT22;39071;52.420;20.896;2022-08-03T09:47:32;34.50;1.00
21189;DHT22;39071;52.420;20.896;2022-08-03T09:50:08;34.20;1.00
21189;DHT22;39071;52.420;20.896;2022-08-03T09:52:36;34.00;1.00
21189;DHT22;39071;52.420;20.896;2022-08-03T09:55:08;34.00;1.00
21189;DHT22;39071;52.420;20.896;2022-08-03T09:57:34;34.00;1.00
21189;DHT22;39071;52.420;20.896;2022-08-03T10:00:11;34.10;1.00
21189;DHT22;39071;52.420;20.896;2022-08-03T10:02:39;34.10;1.00
21189;DHT22;39071;52.420;20.896;2022-08-03T10:05:06;34.10;1.00
21189;DHT22;39071;52.420;20.896;2022-08-03T10:07:44;34.10;1.00
21189;DHT22;39071;52.420;20.896;2022-08-03T10:10:11;33.80;1.00
21189;DHT22;39071;52.420;20.896;2022-08-03T10:12:37;33.80;1.00
21189;DHT22;39071;52.420;20.896;2022-08-03T10:15:04;33.60;1.00
21189;DHT22;39071;52.420;20.896;2022-08-03T10:17:30;33.60;1.00
21189;DHT22;39071;52.420;20.896;2022-08-03T10:19:56;33.30;1.00
21189;DHT22;39071;52.420;20.896;2022-08-03T10:22:26;33.40;1.00
21189;DHT22;39071;52.420;20.896;2022-08-03T10:27:19;33.40;1.00
21189;DHT22;39071;52.420;20.896;2022-08-03T10:29:52;33.50;1.00
21189;DHT22;39071;52.420;20.896;2022-08-03T10:32:40;33.50;1.00
21189;DHT22;39071;52.420;20.896;2022-08-03T10:35:14;33.20;1.00
21189;DHT22;39071;52.420;20.896;2022-08-03T10:37:49;33.30;1.00
21189;DHT22;39071;52.420;20.896;2022-08-03T10:40:20;33.50;1.00
21189;DHT22;39071;52.420;20.896;2022-08-03T10:42:50;33.30;1.00
21189;DHT22;39071;52.420;20.896;2022-08-03T10:45:24;33.20;1.00
21189;DHT22;39071;52.420;20.896;2022-08-03T10:47:52;33.10;1.00
21189;DHT22;39071;52.420;20.896;2022-08-03T10:50:18;33.20;1.00
21189;DHT22;39071;52.420;20.896;2022-08-03T10:52:59;33.30;1.00
21189;DHT22;39071;52.420;20.896;2022-08-03T10:55:36;33.40;1.00
21189;DHT22;39071;52.420;20.896;2022-08-03T11:01:02;32.80;1.00
21189;DHT22;39071;52.420;20.896;2022-08-03T11:03:27;32.90;1.00
21189;DHT22;39071;52.420;20.896;2022-08-03T11:06:14;33.00;1.00
21189;DHT22;39071;52.420;20.896;2022-08-03T11:08:42;32.90;1.00
21189;DHT22;39071;52.420;20.896;2022-08-03T11:16:40;33.20;1.00
21189;DHT22;39071;52.420;20.896;2022-08-03T11:19:08;33.30;1.00
21189;DHT22;39071;52.420;20.896;2022-08-03T11:35:16;33.40;1.00
21189;DHT22;39071;52.420;20.896;2022-08-03T11:40:48;33.70;1.00
21189;DHT22;39071;52.420;20.896;2022-08-03T11:46:00;33.30;1.00
21189;DHT22;39071;52.420;20.896;2022-08-03T11:48:31;33.30;1.00
21189;DHT22;39071;52.420;20.896;2022-08-03T11:51:03;33.20;1.00
21189;DHT22;39071;52.420;20.896;2022-08-03T11:53:29;33.20;1.00
21189;DHT22;39071;52.420;20.896;2022-08-03T11:55:59;33.30;1.00
21189;DHT22;39071;52.420;20.896;2022-08-03T11:58:25;33.30;1.00
21189;DHT22;39071;52.420;20.896;2022-08-03T12:00:50;32.60;1.00
21189;DHT22;39071;52.420;20.896;2022-08-03T12:03:18;32.70;1.00
21189;DHT22;39071;52.420;20.896;2022-08-03T12:05:49;32.80;1.00
21189;DHT22;39071;52.420;20.896;2022-08-03T12:08:37;33.10;1.00
21189;DHT22;39071;52.420;20.896;2022-08-03T12:11:05;33.30;1.00
21189;DHT22;39071;52.420;20.896;2022-08-03T12:13:39;33.20;1.00
21189;DHT22;39071;52.420;20.896;2022-08-03T12:16:06;33.20;1.00
21189;DHT22;39071;52.420;20.896;2022-08-03T12:18:31;33.10;1.00
21189;DHT22;39071;52.420;20.896;2022-08-03T12:21:09;32.80;1.00
21189;DHT22;39071;52.420;20.896;2022-08-03T12:23:36;33.00;1.00
21189;DHT22;39071;52.420;20.896;2022-08-03T12:26:04;33.00;1.00
21189;DHT22;39071;52.420;20.896;2022-08-03T12:28:30;33.00;1.00
21189;DHT22;39071;52.420;20.896;2022-08-03T12:31:01;33.10;1.00
21189;DHT22;39071;52.420;20.896;2022-08-03T12:33:27;33.00;1.00
21189;DHT22;39071;52.420;20.896;2022-08-03T12:36:09;32.90;1.00
21189;DHT22;39071;52.420;20.896;2022-08-03T12:38:36;32.90;1.00
21189;DHT22;39071;52.420;20.896;2022-08-03T12:41:05;33.00;1.00
21189;DHT22;39071;52.420;20.896;2022-08-03T12:43:31;33.10;1.00
21189;DHT22;39071;52.420;20.896;2022-08-03T12:46:15;33.20;1.00
21189;DHT22;39071;52.420;20.896;2022-08-03T12:51:31;32.70;1.00
21189;DHT22;39071;52.420;20.896;2022-08-03T12:53:58;32.60;1.00
21189;DHT22;39071;52.420;20.896;2022-08-03T12:56:24;32.50;1.00
21189;DHT22;39071;52.420;20.896;2022-08-03T12:58:50;32.30;1.00
21189;DHT22;39071;52.420;20.896;2022-08-03T13:01:18;32.40;1.00
21189;DHT22;39071;52.420;20.896;2022-08-03T13:03:48;32.20;1.00
21189;DHT22;39071;52.420;20.896;2022-08-03T13:06:19;32.20;1.00
21189;DHT22;39071;52.420;20.896;2022-08-03T13:08:45;32.30;1.00
21189;DHT22;39071;52.420;20.896;2022-08-03T13:11:22;32.20;1.00
21189;DHT22;39071;52.420;20.896;2022-08-03T13:13:49;32.10;1.00
21189;DHT22;39071;52.420;20.896;2022-08-03T13:16:15;31.90;1.00
21189;DHT22;39071;52.420;20.896;2022-08-03T13:18:41;32.00;1.00
21189;DHT22;39071;52.420;20.896;2022-08-03T13:21:06;32.00;1.00
21189;DHT22;39071;52.420;20.896;2022-08-03T13:23:32;31.90;1.00
21189;DHT22;39071;52.420;20.896;2022-08-03T13:25:58;31.90;1.00
21189;DHT22;39071;52.420;20.896;2022-08-03T13:28:24;31.90;1.00
21189;DHT22;39071;52.420;20.896;2022-08-03T13:30:50;32.00;1.00
21189;DHT22;39071;52.420;20.896;2022-08-03T13:33:16;31.90;1.00
21189;DHT22;39071;52.420;20.896;2022-08-03T13:35:41;31.90;1.00
21189;DHT22;39071;52.420;20.896;2022-08-03T13:38:07;31.90;1.00
21189;DHT22;39071;52.420;20.896;2022-08-03T13:40:33;31.90;1.00
21189;DHT22;39071;52.420;20.896;2022-08-03T13:42:59;31.90;1.00
21189;DHT22;39071;52.420;20.896;2022-08-03T13:45:24;31.90;1.00
21189;DHT22;39071;52.420;20.896;2022-08-03T13:47:52;31.90;1.00
21189;DHT22;39071;52.420;20.896;2022-08-03T13:50:18;31.80;1.00
21189;DHT22;39071;52.420;20.896;2022-08-03T13:52:43;31.80;1.00
21189;DHT22;39071;52.420;20.896;2022-08-03T13:55:10;31.70;1.00
21189;DHT22;39071;52.420;20.896;2022-08-03T13:57:36;31.60;1.00
21189;DHT22;39071;52.420;20.896;2022-08-03T14:00:04;31.50;1.00
21189;DHT22;39071;52.420;20.896;2022-08-03T14:02:30;31.50;1.00
21189;DHT22;39071;52.420;20.896;2022-08-03T14:04:55;31.40;1.00
21189;DHT22;39071;52.420;20.896;2022-08-03T14:07:21;31.40;1.00
21189;DHT22;39071;52.420;20.896;2022-08-03T14:09:47;31.40;1.00
21189;DHT22;39071;52.420;20.896;2022-08-03T14:12:12;31.20;1.00
21189;DHT22;39071;52.420;20.896;2022-08-03T14:14:38;31.00;1.00
21189;DHT22;39071;52.420;20.896;2022-08-03T14:17:04;31.00;1.00
21189;DHT22;39071;52.420;20.896;2022-08-03T14:19:29;30.90;1.00
21189;DHT22;39071;52.420;20.896;2022-08-03T14:21:55;30.80;1.00
21189;DHT22;39071;52.420;20.896;2022-08-03T14:24:21;30.80;1.00
21189;DHT22;39071;52.420;20.896;2022-08-03T14:26:47;30.90;1.00
21189;DHT22;39071;52.420;20.896;2022-08-03T14:29:13;31.00;1.00
21189;DHT22;39071;52.420;20.896;2022-08-03T14:31:38;31.00;1.00
21189;DHT22;39071;52.420;20.896;2022-08-03T14:34:04;30.80;1.00
21189;DHT22;39071;52.420;20.896;2022-08-03T14:36:30;30.70;1.00
21189;DHT22;39071;52.420;20.896;2022-08-03T14:38:56;30.60;1.00
21189;DHT22;39071;52.420;20.896;2022-08-03T14:41:21;30.50;1.00
21189;DHT22;39071;52.420;20.896;2022-08-03T14:43:47;30.60;1.00
21189;DHT22;39071;52.420;20.896;2022-08-03T14:46:13;30.50;1.00
21189;DHT22;39071;52.420;20.896;2022-08-03T14:48:39;30.40;1.00
21189;DHT22;39071;52.420;20.896;2022-08-03T14:51:05;30.40;1.00
21189;DHT22;39071;52.420;20.896;2022-08-03T14:53:31;30.20;1.00
21189;DHT22;39071;52.420;20.896;2022-08-03T14:55:57;30.00;1.00
21189;DHT22;39071;52.420;20.896;2022-08-03T14:58:23;29.80;1.00
21189;DHT22;39071;52.420;20.896;2022-08-03T15:00:51;29.90;1.00
21189;DHT22;39071;52.420;20.896;2022-08-03T15:03:18;29.80;1.00
21189;DHT22;39071;52.420;20.896;2022-08-03T15:05:47;29.80;1.00
21189;DHT22;39071;52.420;20.896;2022-08-03T15:08:13;29.80;1.00
21189;DHT22;39071;52.420;20.896;2022-08-03T15:10:39;29.90;1.00
21189;DHT22;39071;52.420;20.896;2022-08-03T15:13:04;29.80;1.00
21189;DHT22;39071;52.420;20.896;2022-08-03T15:15:30;29.70;1.00
21189;DHT22;39071;52.420;20.896;2022-08-03T15:17:56;29.80;1.00
21189;DHT22;39071;52.420;20.896;2022-08-03T15:20:21;29.90;1.00
21189;DHT22;39071;52.420;20.896;2022-08-03T15:22:47;29.80;1.00
21189;DHT22;39071;52.420;20.896;2022-08-03T15:25:13;29.80;1.00
21189;DHT22;39071;52.420;20.896;2022-08-03T15:27:39;29.70;1.00
21189;DHT22;39071;52.420;20.896;2022-08-03T15:30:05;29.80;1.00
21189;DHT22;39071;52.420;20.896;2022-08-03T15:32:32;29.80;1.00
21189;DHT22;39071;52.420;20.896;2022-08-03T15:34:58;29.80;1.00
21189;DHT22;39071;52.420;20.896;2022-08-03T15:37:25;29.70;1.00
21189;DHT22;39071;52.420;20.896;2022-08-03T15:39:50;29.60;1.00
21189;DHT22;39071;52.420;20.896;2022-08-03T15:42:16;29.50;1.00
21189;DHT22;39071;52.420;20.896;2022-08-03T15:44:42;29.50;1.00
21189;DHT22;39071;52.420;20.896;2022-08-03T15:47:07;29.60;1.00
21189;DHT22;39071;52.420;20.896;2022-08-03T15:49:33;29.50;1.00
21189;DHT22;39071;52.420;20.896;2022-08-03T15:51:59;29.40;1.00
21189;DHT22;39071;52.420;20.896;2022-08-03T15:54:25;29.40;1.00
21189;DHT22;39071;52.420;20.896;2022-08-03T15:56:51;29.30;1.00
21189;DHT22;39071;52.420;20.896;2022-08-03T15:59:17;29.30;1.00
21189;DHT22;39071;52.420;20.896;2022-08-03T16:01:44;29.20;1.00
21189;DHT22;39071;52.420;20.896;2022-08-03T16:04:10;29.10;1.00
21189;DHT22;39071;52.420;20.896;2022-08-03T16:06:36;29.00;1.00
21189;DHT22;39071;52.420;20.896;2022-08-03T16:09:06;29.10;1.00
21189;DHT22;39071;52.420;20.896;2022-08-03T16:11:32;29.10;1.00
21189;DHT22;39071;52.420;20.896;2022-08-03T16:13:58;29.00;1.00
21189;DHT22;39071;52.420;20.896;2022-08-03T16:16:24;28.80;1.00
21189;DHT22;39071;52.420;20.896;2022-08-03T16:18:50;28.80;1.00